Terminal Aerodrome Forecast
Issued by NWS

Home | Current Version | Previous Version | Text Only | Print | Product List | Glossary On
Versions: 1 2 3 4 5 6 7 8 9 10 11 12 13 14 15 16 17
000
FTUS43 KGLD 220122 AAA
TAFMCK
TAF AMD
KMCK 220122Z 2201/2224 11015G23KT P6SM OVC012
     FM220300 12016G23KT P6SM OVC008
     FM220600 14016G24KT 5SM -DZ BR OVC003
     FM220700 14015G22KT 5SM -DZ BR OVC002 WS020/16040KT
     FM220800 15013G19KT 5SM -DZ BR OVC002
     FM221500 16013G19KT P6SM BKN003
     FM221900 18021G29KT P6SM BKN060=

USA.gov is the U.S. government's official web portal to all federal, state and local government web resources and services.